Muirhead, United Kingdom
Current Conditions -  °F | °C
As of 4:20 PM on Thursday 18 Dec 2014 (Local Time) from EGPN Reporting Station
Scattered Clouds Scattered Clouds  
Wind Chill: 39°   Ceiling: Unl
Heat Index: 46°   Visibility: 6mi
Dew Point: 43°   Wind: 20mph
Humidity: 87%   Direction: 260°W
Pressure: 29.32"   Gusts: NA
Location:  56.5°N, 3.07°W
Report Text: EGPN 181620Z 26017KT 9999 FEW012 SCT032 08/06 Q0993
Loading
Personal Weather Stations






























Interactive Weather Map New forecast layout! Learn more

10-Day Weather Forecast

Advertisements
Track Severe Weather on mobile